createdAt,value
2018-01-22T00:01:49.496Z,25.08
2018-01-22T00:04:19.948Z,24.50
2018-01-22T00:06:50.506Z,25.53
2018-01-22T00:09:21.654Z,26.12
2018-01-22T00:11:53.045Z,26.83
2018-01-22T00:14:23.315Z,26.55
2018-01-22T00:16:54.485Z,27.60
2018-01-22T00:19:25.682Z,25.40
2018-01-22T00:21:56.144Z,26.73
2018-01-22T00:24:27.685Z,26.70
2018-01-22T00:26:58.641Z,25.48
2018-01-22T00:29:29.928Z,27.60
2018-01-22T00:32:00.122Z,27.37
2018-01-22T00:34:30.307Z,26.33
2018-01-22T00:37:00.701Z,27.33
2018-01-22T00:39:31.326Z,26.85
2018-01-22T00:42:01.552Z,25.77
2018-01-22T00:44:32.168Z,26.17
2018-01-22T00:47:03.166Z,26.47
2018-01-22T00:49:33.620Z,25.60
2018-01-22T00:52:03.956Z,27.52
2018-01-22T00:54:35.981Z,26.87
2018-01-22T00:57:06.584Z,26.53
2018-01-22T00:59:36.988Z,27.30
2018-01-22T01:02:07.269Z,26.73
2018-01-22T01:04:37.900Z,28.30
2018-01-22T01:07:08.205Z,27.45
2018-01-22T01:09:39.287Z,27.75
2018-01-22T01:12:09.809Z,29.03
2018-01-22T01:14:40.202Z,27.33
2018-01-22T01:17:11.211Z,28.70
2018-01-22T01:19:43.038Z,25.60
2018-01-22T01:22:13.539Z,27.13
2018-01-22T01:24:44.057Z,26.17
2018-01-22T01:27:15.265Z,27.37
2018-01-22T01:29:45.866Z,27.73
2018-01-22T01:32:16.832Z,27.73
2018-01-22T01:34:47.067Z,27.87
2018-01-22T01:37:18.755Z,28.90
2018-01-22T01:39:49.736Z,26.70
2018-01-22T01:43:23.397Z,26.60
2018-01-22T01:45:53.888Z,27.35
2018-01-22T01:48:25.072Z,28.12
2018-01-22T01:50:57.339Z,28.98
2018-01-22T01:53:29.042Z,29.27
2018-01-22T01:55:59.224Z,30.57
2018-01-22T01:58:30.133Z,27.80
2018-01-22T02:01:01.433Z,28.27
2018-01-22T02:03:31.730Z,30.83
2018-01-22T02:06:01.916Z,30.90
2018-01-22T02:08:33.157Z,31.42
2018-01-22T02:11:03.620Z,30.60
2018-01-22T02:13:34.776Z,31.10
2018-01-22T02:16:06.337Z,31.77
2018-01-22T02:18:36.590Z,31.50
2018-01-22T02:21:07.019Z,31.92
2018-01-22T02:23:38.152Z,30.30
2018-01-22T02:26:08.285Z,31.27
2018-01-22T02:28:39.454Z,30.07
2018-01-22T02:31:09.778Z,32.10
2018-01-22T02:33:40.289Z,30.60
2018-01-22T02:36:11.397Z,32.20
2018-01-22T02:38:41.877Z,31.23
2018-01-22T02:41:12.353Z,32.03
2018-01-22T02:43:45.313Z,28.87
2018-01-22T02:46:17.265Z,28.83
2018-01-22T02:48:47.508Z,30.73
2018-01-22T02:51:18.087Z,29.98
2018-01-22T02:53:48.252Z,29.50
2018-01-22T02:56:18.459Z,28.58
2018-01-22T02:58:48.924Z,29.30
2018-01-22T03:01:19.844Z,28.33
2018-01-22T03:03:50.054Z,30.73
2018-01-22T03:06:21.751Z,27.52
2018-01-22T03:08:52.383Z,30.42
2018-01-22T03:11:23.510Z,30.58
2018-01-22T03:13:54.097Z,29.50
2018-01-22T03:16:24.353Z,28.42
2018-01-22T03:18:54.668Z,29.43
2018-01-22T03:21:25.203Z,31.75
2018-01-22T03:23:55.663Z,28.67
2018-01-22T03:26:26.118Z,30.08
2018-01-22T03:28:56.586Z,31.73
2018-01-22T03:31:27.206Z,31.10
2018-01-22T03:33:57.714Z,32.42
2018-01-22T03:36:28.095Z,31.90
2018-01-22T03:38:59.436Z,31.30
2018-01-22T03:41:30.682Z,30.80
2018-01-22T03:44:01.169Z,30.50
2018-01-22T03:46:31.735Z,30.58
2018-01-22T03:49:02.193Z,29.17
2018-01-22T03:51:32.622Z,30.23
2018-01-22T03:54:03.085Z,27.70
2018-01-22T03:56:35.499Z,30.05
2018-01-22T03:59:06.725Z,30.37
2018-01-22T04:01:37.688Z,29.17
2018-01-22T04:04:08.158Z,29.47
2018-01-22T04:06:41.884Z,29.70
2018-01-22T04:09:13.028Z,29.70
2018-01-22T04:11:43.646Z,27.50
2018-01-22T04:14:14.226Z,28.33
2018-01-22T04:16:44.702Z,30.70
2018-01-22T04:19:15.236Z,29.53
2018-01-22T04:21:45.883Z,29.03
2018-01-22T04:24:17.563Z,27.93
2018-01-22T04:26:47.929Z,30.13
2018-01-22T04:29:18.336Z,28.03
2018-01-22T04:31:48.824Z,30.40
2018-01-22T04:34:19.337Z,29.23
2018-01-22T04:36:50.277Z,31.47
2018-01-22T04:39:20.671Z,31.05
2018-01-22T04:41:51.025Z,29.15
2018-01-22T04:44:21.928Z,31.05
2018-01-22T04:46:55.655Z,31.35
2018-01-22T04:49:26.400Z,30.95
2018-01-22T04:51:56.951Z,30.57
2018-01-22T04:54:27.380Z,30.27
2018-01-22T04:57:00.170Z,31.40
2018-01-22T04:59:31.462Z,33.13
2018-01-22T05:02:02.424Z,31.58
2018-01-22T05:04:34.281Z,31.87
2018-01-22T05:07:08.940Z,29.77
2018-01-22T05:09:39.557Z,30.77
2018-01-22T05:12:10.261Z,32.92
2018-01-22T05:14:41.495Z,32.60
2018-01-22T05:17:14.406Z,32.50
2018-01-22T05:19:45.500Z,31.17
2018-01-22T05:22:16.853Z,31.17
2018-01-22T05:24:46.968Z,31.33
2018-01-22T05:27:17.302Z,32.45
2018-01-22T05:29:47.689Z,31.80
2018-01-22T05:32:24.390Z,32.50
2018-01-22T05:35:01.473Z,35.17
2018-01-22T05:37:31.960Z,32.42
2018-01-22T05:40:02.348Z,33.63
2018-01-22T05:42:33.524Z,34.28
2018-01-22T05:45:05.261Z,33.67
2018-01-22T05:47:36.576Z,31.97
2018-01-22T05:50:08.661Z,33.13
2018-01-22T05:52:40.485Z,33.27
2018-01-22T05:55:10.732Z,32.63
2018-01-22T05:57:43.000Z,34.87
2018-01-22T06:00:13.899Z,34.50
2018-01-22T06:02:44.614Z,32.95
2018-01-22T06:05:15.035Z,33.83
2018-01-22T06:07:45.625Z,34.33
2018-01-22T06:10:17.311Z,47.17
2018-01-22T06:12:49.805Z,34.58
2018-01-22T06:15:20.316Z,35.05
2018-01-22T06:17:51.532Z,36.40
2018-01-22T06:20:22.604Z,35.63
2018-01-22T06:22:52.893Z,36.13
2018-01-22T06:25:23.905Z,37.27
2018-01-22T06:27:54.447Z,36.90
2018-01-22T06:30:28.055Z,37.05
2018-01-22T06:32:59.249Z,37.38
2018-01-22T06:35:30.561Z,37.13
2018-01-22T06:38:00.761Z,35.77
2018-01-22T06:40:31.751Z,35.50
2018-01-22T06:43:02.254Z,37.33
2018-01-22T06:45:32.728Z,37.53
2018-01-22T06:48:06.508Z,37.35
2018-01-22T06:50:36.781Z,37.45
2018-01-22T06:53:08.441Z,33.97
2018-01-22T06:55:39.804Z,36.10
2018-01-22T06:58:10.116Z,35.67
2018-01-22T07:00:43.169Z,36.50
2018-01-22T07:03:15.359Z,36.50
2018-01-22T07:05:46.040Z,36.38
2018-01-22T07:08:31.064Z,37.88
2018-01-22T07:11:02.144Z,36.22
2018-01-22T07:13:32.341Z,37.08
2018-01-22T07:16:02.841Z,37.88
2018-01-22T07:18:34.142Z,37.83
2018-01-22T07:21:05.335Z,36.78
2018-01-22T07:23:36.598Z,39.10
2018-01-22T07:26:07.009Z,37.33
2018-01-22T07:28:40.292Z,38.45
2018-01-22T07:31:12.249Z,35.88
2018-01-22T07:33:43.375Z,37.03
2018-01-22T07:36:14.060Z,35.90
2018-01-22T07:38:47.105Z,36.95
2018-01-22T07:41:17.845Z,34.57
2018-01-22T07:43:48.215Z,37.33
2018-01-22T07:46:19.067Z,36.53
2018-01-22T07:48:54.267Z,37.27
2018-01-22T07:51:31.272Z,36.90
2018-01-22T07:54:02.690Z,34.53
2018-01-22T07:56:33.274Z,34.70
2018-01-22T07:59:03.785Z,36.70
2018-01-22T08:01:34.209Z,37.00
2018-01-22T08:04:04.618Z,34.80
2018-01-22T08:06:35.297Z,38.08
2018-01-22T08:09:05.744Z,36.83
2018-01-22T08:11:36.701Z,38.70
2018-01-22T08:14:07.419Z,36.70
2018-01-22T08:16:37.706Z,37.58
2018-01-22T08:19:08.486Z,37.27
2018-01-22T08:21:40.436Z,37.03
2018-01-22T08:24:11.408Z,37.78
2018-01-22T08:26:43.444Z,40.08
2018-01-22T08:29:15.917Z,38.80
2018-01-22T08:31:47.326Z,38.17
2018-01-22T08:34:17.465Z,37.73
2018-01-22T08:36:48.746Z,36.80
2018-01-22T08:39:18.936Z,38.17
2018-01-22T08:41:50.229Z,37.10
2018-01-22T08:44:20.345Z,39.07
2018-01-22T08:46:50.739Z,38.47
2018-01-22T08:49:21.365Z,37.50
2018-01-22T08:56:22.982Z,39.03
2018-01-22T08:58:53.212Z,38.28
2018-01-22T09:01:23.759Z,38.57
2018-01-22T09:03:54.239Z,39.90
2018-01-22T09:06:24.458Z,40.63
2018-01-22T09:09:05.737Z,37.47
2018-01-22T09:11:47.022Z,36.70
2018-01-22T09:14:17.195Z,37.07
2018-01-22T09:16:48.752Z,37.27
2018-01-22T09:19:19.640Z,34.97
2018-01-22T09:26:20.903Z,35.43
2018-01-22T09:28:51.443Z,34.23
2018-01-22T09:36:04.349Z,35.03
2018-01-22T09:38:35.700Z,34.77
2018-01-22T09:41:05.956Z,34.50
2018-01-22T09:43:36.114Z,36.90
2018-01-22T09:46:17.005Z,36.47
2018-01-22T09:48:57.744Z,34.90
2018-01-22T09:51:27.928Z,34.83
2018-01-22T09:58:28.837Z,34.37
2018-01-22T10:00:59.001Z,36.23
2018-01-22T10:03:29.397Z,37.57
2018-01-22T10:06:10.889Z,36.30
2018-01-22T10:13:13.901Z,34.80
2018-01-22T10:15:44.470Z,37.40
2018-01-22T10:18:14.969Z,36.90
2018-01-22T10:21:06.807Z,35.57
2018-01-22T10:23:37.712Z,37.33
2018-01-22T10:26:09.984Z,36.53
2018-01-22T10:28:52.982Z,35.97
2018-01-22T10:31:24.354Z,36.23
2018-01-22T10:33:54.657Z,35.40
2018-01-22T10:39:15.784Z,36.75
2018-01-22T10:41:46.002Z,34.40
2018-01-22T10:44:16.169Z,33.97
2018-01-22T10:46:56.880Z,35.30
2018-01-22T10:53:57.289Z,35.27
2018-01-22T10:56:27.736Z,36.93
2018-01-22T10:58:57.980Z,35.57
2018-01-22T11:05:59.033Z,35.53
2018-01-22T11:08:39.472Z,35.93
2018-01-22T11:11:20.452Z,34.70
2018-01-22T11:13:50.629Z,35.97
2018-01-22T11:20:51.923Z,34.10
2018-01-22T11:23:22.049Z,32.13
2018-01-22T11:30:23.922Z,34.67
2018-01-22T11:32:55.190Z,33.50
2018-01-22T11:35:25.782Z,32.75
2018-01-22T11:37:56.969Z,33.03
2018-01-22T11:40:27.176Z,31.00
2018-01-22T11:42:57.638Z,32.57
2018-01-22T11:45:27.886Z,32.30
2018-01-22T11:47:58.844Z,34.30
2018-01-22T11:50:30.253Z,31.03
2018-01-22T11:53:10.916Z,33.27
2018-01-22T11:55:41.883Z,34.80
2018-01-22T11:58:22.696Z,32.30
2018-01-22T12:00:52.961Z,32.17
2018-01-22T12:03:24.392Z,33.17
2018-01-22T12:06:05.236Z,34.83
2018-01-22T12:08:35.513Z,33.83
2018-01-22T12:11:06.084Z,31.83
2018-01-22T12:13:36.274Z,33.70
2018-01-22T12:16:06.500Z,33.97
2018-01-22T12:18:37.129Z,54.27
2018-01-22T12:21:07.635Z,33.83
2018-01-22T12:23:38.898Z,34.57
2018-01-22T12:26:09.248Z,33.53
2018-01-22T12:40:32.110Z,32.13
2018-01-22T12:43:02.243Z,60.30
2018-01-22T12:50:03.292Z,32.27
2018-01-22T12:57:04.604Z,28.73
2018-01-22T13:04:26.356Z,30.67
2018-01-22T13:07:07.039Z,30.70
2018-01-22T13:09:37.762Z,32.20
2018-01-22T13:12:07.933Z,30.43
2018-01-22T13:14:38.174Z,29.37
2018-01-22T13:21:40.186Z,29.63
2018-01-22T13:24:10.779Z,29.63
2018-01-22T13:26:52.546Z,30.48
2018-01-22T13:29:23.583Z,29.67
2018-01-22T13:31:54.158Z,29.07
2018-01-22T13:34:35.497Z,30.77
2018-01-22T13:37:06.017Z,30.10
2018-01-22T13:39:36.904Z,28.10
2018-01-22T13:42:07.993Z,29.57
2018-01-22T13:44:38.988Z,29.53
2018-01-22T13:51:40.800Z,31.63
2018-01-22T13:54:11.978Z,27.40
2018-01-22T13:56:42.592Z,29.07
2018-01-22T13:59:23.394Z,27.70
2018-01-22T14:01:53.580Z,29.93
2018-01-22T14:04:24.076Z,29.13
2018-01-22T14:06:54.409Z,29.80
2018-01-22T14:09:35.761Z,30.83
2018-01-22T14:12:07.524Z,31.27
2018-01-22T14:14:38.506Z,30.60
2018-01-22T14:17:10.140Z,30.27
2018-01-22T14:19:50.913Z,30.83
2018-01-22T14:26:51.849Z,28.08
2018-01-22T14:29:22.815Z,32.73
2018-01-22T14:36:23.693Z,28.80
2018-01-22T14:38:58.902Z,29.85
2018-01-22T14:41:29.779Z,30.10
2018-01-22T14:44:01.100Z,28.67
2018-01-22T14:46:31.357Z,27.00
2018-01-22T14:49:01.919Z,27.00
2018-01-22T15:00:34.823Z,24.40
2018-01-22T15:03:05.036Z,26.80
2018-01-22T15:10:07.268Z,27.23
2018-01-22T15:12:37.732Z,29.07
2018-01-22T15:15:07.962Z,26.87
2018-01-22T15:17:38.701Z,28.73
2018-01-22T15:20:09.346Z,27.97
2018-01-22T15:22:39.700Z,29.57
2018-01-22T15:25:10.135Z,26.17
2018-01-22T15:27:41.599Z,28.23
2018-01-22T15:30:11.979Z,28.43
2018-01-22T15:32:42.165Z,26.97
2018-01-22T15:35:13.082Z,24.87
2018-01-22T15:37:43.361Z,28.77
2018-01-22T15:40:13.589Z,31.17
2018-01-22T15:42:44.073Z,28.30
2018-01-22T15:45:24.565Z,27.57
2018-01-22T15:47:55.174Z,30.43
2018-01-22T15:50:26.038Z,26.00
2018-01-22T15:56:32.794Z,27.60
2018-01-22T15:59:05.300Z,27.50
2018-01-22T16:01:37.187Z,26.30
2018-01-22T16:04:17.964Z,27.23
2018-01-22T16:11:20.455Z,23.90
2018-01-22T16:13:52.984Z,25.80
2018-01-22T16:16:23.132Z,25.33
2018-01-22T16:18:56.105Z,28.40
2018-01-22T16:21:26.721Z,25.00
2018-01-22T16:23:56.971Z,26.67
2018-01-22T16:26:27.507Z,29.70
2018-01-22T16:28:58.588Z,26.07
2018-01-22T16:31:29.266Z,25.30
2018-01-22T16:33:59.654Z,55.53
2018-01-22T16:36:29.885Z,28.80
2018-01-22T16:39:01.618Z,25.40
2018-01-22T16:41:31.989Z,26.80
2018-01-22T16:44:02.424Z,27.80
2018-01-22T16:46:32.708Z,25.63
2018-01-22T16:49:03.199Z,26.70
2018-01-22T16:51:34.431Z,29.17
2018-01-22T16:54:05.705Z,29.63
2018-01-22T16:56:36.213Z,32.43
2018-01-22T16:59:06.499Z,32.40
2018-01-22T17:01:37.766Z,31.27
2018-01-22T17:04:09.353Z,32.23
2018-01-22T17:06:39.577Z,28.27
2018-01-22T17:09:10.746Z,34.17
2018-01-22T17:11:41.865Z,31.60
2018-01-22T17:14:12.253Z,33.70
2018-01-22T17:16:47.782Z,32.07
2018-01-22T17:19:18.846Z,31.37
2018-01-22T17:21:50.097Z,34.80
2018-01-22T17:24:20.385Z,33.77
2018-01-22T17:26:50.906Z,33.50
2018-01-22T17:29:21.215Z,33.97
2018-01-22T17:31:51.466Z,29.60
2018-01-22T17:34:22.120Z,29.17
2018-01-22T17:36:53.384Z,32.37
2018-01-22T17:39:23.890Z,31.00
2018-01-22T17:41:55.053Z,30.97
2018-01-22T17:44:25.513Z,29.50
2018-01-22T17:46:56.544Z,31.73
2018-01-22T17:49:26.755Z,32.00
2018-01-22T17:51:58.072Z,33.37
2018-01-22T17:54:35.423Z,35.90
2018-01-22T17:57:39.524Z,32.97
2018-01-22T18:00:16.514Z,30.87
2018-01-22T18:02:47.595Z,31.90
2018-01-22T18:05:19.735Z,32.87
2018-01-22T18:07:53.384Z,32.83
2018-01-22T18:10:24.176Z,29.80
2018-01-22T18:12:55.649Z,33.17
2018-01-22T18:15:26.679Z,32.13
2018-01-22T18:17:57.400Z,31.27
2018-01-22T18:20:44.601Z,32.10
2018-01-22T18:23:17.417Z,30.13
2018-01-22T18:26:09.669Z,34.57
2018-01-22T18:28:45.697Z,31.57
2018-01-22T18:31:16.942Z,32.93
2018-01-22T18:33:47.865Z,32.03
2018-01-22T18:36:18.070Z,30.70
2018-01-22T18:38:48.515Z,30.67
2018-01-22T18:41:19.638Z,31.63
2018-01-22T18:43:49.824Z,31.47
2018-01-22T18:46:20.198Z,29.87
2018-01-22T18:48:50.561Z,29.10
2018-01-22T18:51:20.774Z,31.13
2018-01-22T18:53:51.301Z,29.43
2018-01-22T18:56:21.509Z,30.63
2018-01-22T18:58:56.974Z,33.67
2018-01-22T19:01:28.071Z,32.40
2018-01-22T19:03:59.017Z,31.83
2018-01-22T19:06:30.045Z,29.07
2018-01-22T19:09:00.494Z,28.87
2018-01-22T19:11:31.549Z,30.93
2018-01-22T19:14:01.775Z,27.97
2018-01-22T19:16:33.065Z,28.73
2018-01-22T19:19:03.548Z,29.40
2018-01-22T19:21:33.731Z,29.30
2018-01-22T19:24:04.225Z,29.67
2018-01-22T19:26:34.385Z,31.90
2018-01-22T19:29:05.541Z,31.47
2018-01-22T19:31:37.619Z,32.33
2018-01-22T19:34:09.536Z,30.50
2018-01-22T19:36:40.191Z,30.07
2018-01-22T19:39:11.220Z,30.97
2018-01-22T19:41:41.816Z,30.53
2018-01-22T19:44:12.238Z,29.97
2018-01-22T19:46:43.245Z,32.40
2018-01-22T19:49:13.778Z,30.47
2018-01-22T19:51:43.968Z,29.33
2018-01-22T19:54:15.330Z,30.70
2018-01-22T19:56:45.530Z,29.87
2018-01-22T19:59:16.099Z,30.03
2018-01-22T20:01:46.397Z,31.77
2018-01-22T20:04:17.813Z,31.37
2018-01-22T20:06:48.471Z,29.47
2018-01-22T20:09:19.520Z,29.17
2018-01-22T20:11:50.508Z,31.87
2018-01-22T20:14:20.972Z,31.10
2018-01-22T20:16:51.294Z,30.37
2018-01-22T20:19:22.604Z,29.30
2018-01-22T20:21:52.800Z,33.03
2018-01-22T20:24:23.345Z,31.03
2018-01-22T20:26:54.789Z,29.03
2018-01-22T20:29:25.109Z,31.40
2018-01-22T20:31:55.758Z,30.00
2018-01-22T20:34:26.020Z,29.17
2018-01-22T20:36:57.799Z,29.10
2018-01-22T20:39:29.343Z,30.63
2018-01-22T20:42:00.599Z,31.93
2018-01-22T20:44:30.904Z,30.77
2018-01-22T20:47:01.475Z,28.60
2018-01-22T20:49:33.540Z,31.03
2018-01-22T20:52:04.050Z,31.10
2018-01-22T20:54:34.252Z,31.40
2018-01-22T20:57:06.570Z,28.93
2018-01-22T20:59:36.855Z,28.60
2018-01-22T21:02:08.341Z,32.40
2018-01-22T21:04:38.558Z,32.27
2018-01-22T21:07:08.831Z,29.90
2018-01-22T21:09:39.625Z,29.03
2018-01-22T21:12:10.181Z,28.83
2018-01-22T21:14:40.529Z,30.53
2018-01-22T21:17:11.125Z,31.07
2018-01-22T21:19:42.128Z,29.47
2018-01-22T21:22:12.458Z,29.20
2018-01-22T21:24:42.708Z,31.33
2018-01-22T21:27:12.936Z,28.20
2018-01-22T21:29:43.458Z,28.17
2018-01-22T21:32:13.910Z,28.37
2018-01-22T21:34:44.254Z,30.90
2018-01-22T21:37:14.433Z,30.03
2018-01-22T21:39:44.805Z,30.87
2018-01-22T21:42:14.964Z,33.17
2018-01-22T21:44:45.207Z,30.17
2018-01-22T21:47:15.776Z,31.63
2018-01-22T21:49:46.194Z,30.93
2018-01-22T21:52:16.382Z,36.60
2018-01-22T21:54:50.941Z,32.73
2018-01-22T21:57:21.384Z,33.83
2018-01-22T21:59:51.869Z,36.20
2018-01-22T22:02:41.873Z,32.03
2018-01-22T22:05:12.465Z,30.60
2018-01-22T22:07:42.949Z,29.90
2018-01-22T22:10:13.300Z,31.90
2018-01-22T22:12:43.576Z,31.80
2018-01-22T22:15:13.802Z,31.60
2018-01-22T22:17:45.469Z,31.67
2018-01-22T22:20:17.264Z,30.57
2018-01-22T22:22:58.758Z,31.47
2018-01-22T22:25:30.026Z,27.67
2018-01-22T22:28:00.748Z,28.53
2018-01-22T22:30:31.991Z,27.87
2018-01-22T22:33:03.351Z,30.50
2018-01-22T22:35:35.291Z,30.00
2018-01-22T22:38:05.862Z,29.77
2018-01-22T22:40:36.116Z,29.33
2018-01-22T22:43:07.839Z,29.90
2018-01-22T22:45:38.717Z,29.07
2018-01-22T22:48:09.181Z,28.37
2018-01-22T22:50:39.781Z,32.63
2018-01-22T22:53:11.056Z,29.40
2018-01-22T22:55:42.056Z,32.23
2018-01-22T22:58:13.066Z,31.00
2018-01-22T23:00:43.688Z,28.90
2018-01-22T23:03:14.191Z,32.50
2018-01-22T23:05:44.748Z,31.87
2018-01-22T23:08:15.378Z,33.43
2018-01-22T23:10:45.761Z,29.57
2018-01-22T23:13:16.020Z,30.33
2018-01-22T23:15:46.630Z,29.93
2018-01-22T23:18:18.375Z,30.90
2018-01-22T23:20:50.825Z,29.90
2018-01-22T23:23:22.144Z,32.07
2018-01-22T23:25:52.446Z,31.50
2018-01-22T23:28:23.542Z,34.50
2018-01-22T23:30:54.117Z,32.10
2018-01-22T23:33:24.809Z,29.97
2018-01-22T23:35:58.037Z,31.87
2018-01-22T23:38:30.194Z,28.73
2018-01-22T23:41:00.802Z,30.83
2018-01-22T23:43:31.898Z,30.10
2018-01-22T23:46:04.034Z,34.00
2018-01-22T23:48:35.134Z,29.03
2018-01-22T23:51:05.916Z,28.27
2018-01-22T23:53:36.300Z,27.73
2018-01-22T23:56:06.795Z,28.27
2018-01-22T23:58:39.332Z,31.57
